createdAt,value
2023-08-11T00:13:09.896Z,100923.90
2023-08-11T00:28:13.046Z,100929.51
2023-08-11T00:43:16.256Z,100928.50
2023-08-11T00:58:19.730Z,100934.58
2023-08-11T01:13:24.901Z,100930.56
2023-08-11T01:28:29.078Z,100928.92
2023-08-11T01:43:32.771Z,100920.66
2023-08-11T01:58:35.956Z,100919.52
2023-08-11T02:13:39.228Z,100915.11
2023-08-11T02:28:42.810Z,100922.60
2023-08-11T02:43:46.560Z,100929.13
2023-08-11T02:58:49.721Z,100936.66
2023-08-11T03:13:52.933Z,100938.97
2023-08-11T03:28:56.236Z,100937.13
2023-08-11T03:43:59.789Z,100938.84
2023-08-11T03:59:04.173Z,100941.21
2023-08-11T04:14:08.701Z,100941.72
2023-08-11T04:29:12.026Z,100945.16
2023-08-11T04:44:15.750Z,100948.85
2023-08-11T04:59:19.501Z,100953.81
2023-08-11T05:14:24.433Z,100958.58
2023-08-11T05:29:27.609Z,100956.91
2023-08-11T05:44:30.756Z,100961.14
2023-08-11T05:59:34.046Z,100966.99
2023-08-11T06:14:37.241Z,100970.59
2023-08-11T06:29:40.447Z,100969.66
2023-08-11T06:44:45.625Z,100974.13
2023-08-11T06:59:49.426Z,100985.81
2023-08-11T07:14:53.025Z,100994.82
2023-08-11T07:29:56.266Z,101010.96
2023-08-11T07:44:59.432Z,101006.04
2023-08-11T08:00:02.698Z,101004.26
2023-08-11T08:15:18.484Z,100998.30
2023-08-11T08:30:21.825Z,101007.60
2023-08-11T08:45:26.291Z,101015.02
2023-08-11T09:00:29.969Z,101020.43
2023-08-11T09:15:34.331Z,101021.52
2023-08-11T09:30:37.799Z,101013.13
2023-08-11T09:45:41.072Z,101003.35
2023-08-11T10:00:46.693Z,101002.23
2023-08-11T10:15:52.588Z,101006.46
2023-08-11T10:31:03.894Z,101008.27
2023-08-11T10:46:26.308Z,101009.41
2023-08-11T11:01:29.816Z,101010.66
2023-08-11T11:16:34.139Z,101014.85
2023-08-11T11:31:40.952Z,101016.59
2023-08-11T11:46:44.469Z,101015.53
2023-08-11T12:01:47.817Z,101014.59
2023-08-11T12:16:51.138Z,101006.45
2023-08-11T12:31:54.378Z,100994.30
2023-08-11T12:46:57.616Z,100985.27
2023-08-11T13:02:00.874Z,100988.02
2023-08-11T13:17:04.343Z,100977.45
2023-08-11T13:32:07.763Z,100980.52
2023-08-11T13:47:12.068Z,100971.37
2023-08-11T14:02:15.209Z,100974.14
2023-08-11T14:17:18.677Z,100966.00
2023-08-11T14:32:26.278Z,100963.69
2023-08-11T14:47:30.476Z,100958.49
2023-08-11T15:02:34.075Z,100956.55
2023-08-11T15:17:37.507Z,100954.21
2023-08-11T15:32:40.921Z,100964.81
2023-08-11T15:47:44.351Z,100951.77
2023-08-11T16:02:47.570Z,100956.39
2023-08-11T16:17:54.756Z,100952.53
2023-08-11T16:33:14.899Z,100949.02
2023-08-11T16:48:36.927Z,100951.09
2023-08-11T17:03:59.009Z,100948.79
2023-08-11T17:19:13.997Z,100951.05
2023-08-11T17:34:34.055Z,100958.48
2023-08-11T17:49:44.458Z,100962.71
2023-08-11T18:04:59.279Z,100974.23
2023-08-11T18:20:15.196Z,100989.58
2023-08-11T18:51:50.225Z,101007.81
2023-08-11T19:07:12.637Z,101023.21
2023-08-11T19:22:21.282Z,101026.04
2023-08-11T19:37:25.630Z,101031.95
2023-08-11T19:52:29.610Z,101035.28
2023-08-11T20:07:33.082Z,101038.63
2023-08-11T20:22:37.020Z,101037.56
2023-08-11T20:37:40.678Z,101044.77
2023-08-11T20:52:44.290Z,101039.02
2023-08-11T21:07:47.978Z,101044.80
2023-08-11T21:22:51.575Z,101041.10
2023-08-11T21:37:55.112Z,101036.82
2023-08-11T21:53:06.610Z,101039.56
2023-08-11T22:08:17.156Z,101044.08
2023-08-11T22:23:20.548Z,101038.74
2023-08-11T22:38:24.387Z,101036.27
2023-08-11T22:53:28.388Z,101037.48
2023-08-11T23:08:31.796Z,101029.73
2023-08-11T23:23:35.380Z,101020.36
2023-08-11T23:38:38.921Z,101014.36
2023-08-11T23:53:42.907Z,101014.59
